Terminal Aerodrome Forecast
Issued by NWS

Home | Current Version | Previous Version | Text Only | Print | Product List | Glossary On
Versions: 1 2 3 4 5 6 7 8 9 10 11 12 13 14 15 16 17 18
279
FTUS46 KPDT 241741
TAFRDM
TAF
KRDM 241741Z 2418/2518 19016G27KT P6SM FEW040 OVC120
     FM241900 20015G22KT P6SM VCSH SCT050 BKN070
     FM242200 22012G20KT P6SM SCT070 BKN100
     FM250600 18005KT P6SM SCT080 SCT100=

USA.gov is the U.S. government's official web portal to all federal, state and local government web resources and services.